Time;durP1;ratioP1;P1;durP2;ratioP2;P2;SDS_P1;SDS_P2;PMS_P1;PMS_P2;Temp;Humidity;BMP_temperature;BMP_pressure;BME280_temperature;BME280_humidity;BME280_pressure;Samples;Min_cycle;Max_cycle;Signal;HPM_P1;HPM_P2
2021/05/05 00:00:41;;;;;;;8.60;3.08;;;;;;;;;;6227489;23;20214;-91
2021/05/05 00:03:46;;;;;;;5.85;2.83;;;;;;;;;;6226536;23;20166;-91
2021/05/05 00:06:51;;;;;;;5.90;3.08;;;;;;;;;;6226209;23;20171;-91
2021/05/05 00:09:56;;;;;;;8.45;2.90;;;;;;;;;;6226366;23;20232;-92
2021/05/05 00:13:00;;;;;;;3.78;2.72;;;;;;;;;;6226181;22;20275;-91
2021/05/05 00:16:08;;;;;;;8.48;3.13;;;;;;;;;;6225221;23;20221;-91
2021/05/05 00:19:13;;;;;;;5.00;3.10;;;;;;;;;;6225152;22;20244;-92
2021/05/05 00:22:18;;;;;;;5.97;3.00;;;;;;;;;;6225886;23;20210;-92
2021/05/05 00:25:24;;;;;;;4.40;2.83;;;;;;;;;;6225230;22;20167;-90
2021/05/05 00:28:28;;;;;;;6.63;3.13;;;;;;;;;;6226665;23;20167;-91
2021/05/05 00:31:34;;;;;;;5.38;2.75;;;;;;;;;;6225555;23;20174;-93
2021/05/05 00:34:39;;;;;;;6.53;3.20;;;;;;;;;;6226784;22;20190;-92
2021/05/05 00:37:43;;;;;;;8.98;3.70;;;;;;;;;;6227468;23;20187;-92
2021/05/05 00:40:49;;;;;;;7.82;3.17;;;;;;;;;;6227352;22;20191;-91
2021/05/05 00:43:54;;;;;;;4.28;2.88;;;;;;;;;;6227727;22;20214;-90
2021/05/05 00:46:59;;;;;;;5.55;3.20;;;;;;;;;;6227602;22;20265;-90
2021/05/05 00:50:04;;;;;;;6.00;3.30;;;;;;;;;;6233419;23;20248;-91
2021/05/05 00:53:09;;;;;;;5.55;3.42;;;;;;;;;;6240934;23;20206;-89
2021/05/05 00:56:16;;;;;;;8.05;3.63;;;;;;;;;;6240286;23;20197;-92
2021/05/05 00:59:22;;;;;;;6.50;3.58;;;;;;;;;;6238961;23;20161;-92
2021/05/05 01:02:27;;;;;;;6.43;3.25;;;;;;;;;;6237072;23;20189;-92
2021/05/05 01:05:32;;;;;;;6.40;3.03;;;;;;;;;;6236804;23;20171;-91
2021/05/05 01:08:37;;;;;;;6.80;3.28;;;;;;;;;;6235874;23;20181;-91
2021/05/05 01:11:43;;;;;;;7.68;3.63;;;;;;;;;;6237491;23;20214;-92
2021/05/05 01:14:49;;;;;;;8.88;3.25;;;;;;;;;;6237621;23;20217;-93
2021/05/05 01:17:55;;;;;;;8.27;3.45;;;;;;;;;;6245409;23;20166;-91
2021/05/05 01:21:01;;;;;;;5.85;3.60;;;;;;;;;;6238508;23;20564;-93
2021/05/05 01:24:09;;;;;;;7.50;3.40;;;;;;;;;;6238645;23;20167;-91
2021/05/05 01:27:14;;;;;;;4.55;3.38;;;;;;;;;;6238112;22;20166;-92
2021/05/05 01:30:20;;;;;;;5.72;3.47;;;;;;;;;;6238944;23;20269;-91
2021/05/05 01:33:24;;;;;;;4.63;3.30;;;;;;;;;;6239505;22;20191;-91
2021/05/05 01:36:31;;;;;;;7.72;3.60;;;;;;;;;;6239195;23;20266;-91
2021/05/05 01:39:40;;;;;;;6.68;3.60;;;;;;;;;;6240204;23;20170;-91
2021/05/05 01:42:45;;;;;;;5.82;3.63;;;;;;;;;;6240328;23;20641;-91
2021/05/05 01:45:52;;;;;;;10.00;3.75;;;;;;;;;;6238497;23;20201;-91
2021/05/05 01:48:57;;;;;;;7.90;3.63;;;;;;;;;;6237306;23;20213;-91
2021/05/05 01:52:04;;;;;;;8.10;3.40;;;;;;;;;;6225924;22;22117;-90
2021/05/05 01:55:10;;;;;;;7.00;3.53;;;;;;;;;;6226010;22;20155;-91
2021/05/05 01:58:15;;;;;;;8.65;3.50;;;;;;;;;;6226301;22;20199;-91
2021/05/05 02:01:20;;;;;;;4.40;3.08;;;;;;;;;;6226641;22;20614;-93
2021/05/05 02:04:27;;;;;;;10.23;3.60;;;;;;;;;;6225872;22;20183;-92
2021/05/05 02:07:41;;;;;;;4.60;3.42;;;;;;;;;;6225840;23;20276;-91
2021/05/05 02:10:46;;;;;;;7.05;3.67;;;;;;;;;;6226026;22;20152;-91
2021/05/05 02:13:51;;;;;;;5.43;3.53;;;;;;;;;;6226109;23;20195;-90
2021/05/05 02:16:56;;;;;;;6.68;3.83;;;;;;;;;;6225720;23;20170;-90
2021/05/05 02:20:01;;;;;;;9.20;3.63;;;;;;;;;;6224159;23;20666;-91
2021/05/05 02:23:08;;;;;;;7.22;3.45;;;;;;;;;;6223943;23;20227;-91
2021/05/05 02:26:16;;;;;;;10.80;3.90;;;;;;;;;;6223187;23;20179;-91
2021/05/05 02:29:22;;;;;;;6.32;3.63;;;;;;;;;;6222133;23;20163;-93
2021/05/05 02:32:38;;;;;;;9.82;4.43;;;;;;;;;;6226371;22;20199;-91
2021/05/05 02:35:42;;;;;;;7.30;4.13;;;;;;;;;;6227129;22;20617;-91
2021/05/05 02:38:52;;;;;;;6.78;4.15;;;;;;;;;;6226383;22;20183;-91
2021/05/05 02:42:00;;;;;;;8.52;4.00;;;;;;;;;;6229787;22;20167;-91
2021/05/05 02:45:10;;;;;;;6.28;4.20;;;;;;;;;;6231890;22;20211;-90
2021/05/05 02:48:14;;;;;;;6.03;4.32;;;;;;;;;;6226644;23;20223;-90
2021/05/05 02:51:19;;;;;;;8.82;4.55;;;;;;;;;;6227066;23;20207;-91
2021/05/05 02:54:25;;;;;;;8.35;4.78;;;;;;;;;;6224900;23;20264;-91
2021/05/05 02:57:30;;;;;;;7.85;4.43;;;;;;;;;;6227038;23;20210;-90
2021/05/05 03:00:35;;;;;;;8.82;4.72;;;;;;;;;;6228225;22;20167;-91
2021/05/05 03:03:39;;;;;;;10.52;4.78;;;;;;;;;;6228091;23;20182;-92
2021/05/05 03:06:44;;;;;;;6.50;4.47;;;;;;;;;;6228021;23;20239;-91
2021/05/05 03:09:50;;;;;;;6.20;3.75;;;;;;;;;;6227126;22;20239;-90
2021/05/05 03:12:54;;;;;;;6.20;4.03;;;;;;;;;;6226715;22;20215;-91
2021/05/05 03:15:59;;;;;;;9.55;4.55;;;;;;;;;;6227138;23;20526;-91
2021/05/05 03:19:04;;;;;;;9.13;4.90;;;;;;;;;;6226639;22;20163;-89
2021/05/05 03:22:11;;;;;;;10.68;5.25;;;;;;;;;;6227708;23;20187;-91
2021/05/05 03:25:17;;;;;;;9.68;5.25;;;;;;;;;;6227357;22;20171;-91
2021/05/05 03:28:21;;;;;;;9.55;4.78;;;;;;;;;;6228410;22;20155;-91
2021/05/05 03:31:26;;;;;;;11.10;5.40;;;;;;;;;;6226732;23;20170;-92
2021/05/05 03:34:30;;;;;;;12.27;5.35;;;;;;;;;;6226791;23;20173;-90
2021/05/05 03:37:35;;;;;;;11.00;4.82;;;;;;;;;;6230886;22;20247;-91
2021/05/05 03:40:41;;;;;;;10.38;5.30;;;;;;;;;;6227945;22;20175;-92
2021/05/05 03:43:45;;;;;;;10.02;5.50;;;;;;;;;;6227465;23;20170;-90
2021/05/05 03:46:50;;;;;;;13.07;6.30;;;;;;;;;;6229839;23;20163;-91
2021/05/05 03:49:54;;;;;;;12.95;5.35;;;;;;;;;;6226851;23;20172;-91
2021/05/05 03:52:59;;;;;;;11.60;5.38;;;;;;;;;;6229165;23;20263;-91
2021/05/05 03:56:05;;;;;;;11.73;5.35;;;;;;;;;;6228246;23;20226;-91
2021/05/05 03:59:10;;;;;;;9.52;5.65;;;;;;;;;;6227982;22;20171;-91
2021/05/05 04:05:55;;;;;;;11.48;5.70;;;;;;;;;;6227884;22;20167;-90
2021/05/05 04:09:00;;;;;;;9.43;4.85;;;;;;;;;;6229101;22;20179;-92
2021/05/05 04:12:07;;;;;;;9.18;5.70;;;;;;;;;;6228640;23;20167;-90
2021/05/05 04:15:12;;;;;;;10.18;5.32;;;;;;;;;;6228215;23;20166;-91
2021/05/05 04:18:16;;;;;;;7.53;4.90;;;;;;;;;;6228239;22;20154;-92
2021/05/05 04:21:22;;;;;;;10.98;5.63;;;;;;;;;;6228448;22;20155;-91
2021/05/05 04:24:27;;;;;;;8.93;5.50;;;;;;;;;;6228558;22;20171;-90
2021/05/05 04:27:34;;;;;;;11.35;5.22;;;;;;;;;;6230867;23;20163;-89
2021/05/05 04:30:39;;;;;;;9.43;5.22;;;;;;;;;;6231911;22;20542;-91
2021/05/05 04:33:46;;;;;;;10.70;5.18;;;;;;;;;;6230660;22;20186;-92
2021/05/05 04:36:50;;;;;;;8.68;5.60;;;;;;;;;;6230063;23;20166;-90
2021/05/05 04:40:01;;;;;;;9.75;5.43;;;;;;;;;;6230381;22;20255;-90
2021/05/05 04:43:07;;;;;;;11.25;5.00;;;;;;;;;;6229714;23;20220;-91
2021/05/05 04:46:12;;;;;;;12.63;5.60;;;;;;;;;;6231604;22;20186;-91
2021/05/05 04:49:16;;;;;;;11.70;5.13;;;;;;;;;;6229555;23;20179;-91
2021/05/05 04:52:21;;;;;;;10.57;4.88;;;;;;;;;;6231277;22;20580;-90
2021/05/05 04:55:27;;;;;;;10.50;5.85;;;;;;;;;;6229984;22;20171;-91
2021/05/05 04:58:37;;;;;;;8.38;5.18;;;;;;;;;;6229650;23;20218;-88
2021/05/05 05:01:42;;;;;;;10.88;5.38;;;;;;;;;;6229290;23;20242;-90
2021/05/05 05:04:47;;;;;;;12.73;5.22;;;;;;;;;;6229452;23;20214;-90
2021/05/05 05:08:16;;;;;;;8.18;4.80;;;;;;;;;;6230567;22;20167;-90
2021/05/05 05:11:21;;;;;;;10.27;5.20;;;;;;;;;;6230654;23;20167;-90
2021/05/05 05:14:36;;;;;;;10.32;5.43;;;;;;;;;;6232782;23;20183;-93
2021/05/05 05:17:42;;;;;;;10.93;5.60;;;;;;;;;;6232261;22;20236;-93
2021/05/05 05:20:47;;;;;;;8.77;5.40;;;;;;;;;;6233085;23;20686;-92
2021/05/05 05:23:58;;;;;;;11.85;5.90;;;;;;;;;;6230848;23;20171;-92
2021/05/05 05:27:03;;;;;;;10.70;5.65;;;;;;;;;;6232993;22;20187;-91
2021/05/05 05:30:10;;;;;;;9.82;5.30;;;;;;;;;;6228574;23;20171;-90
2021/05/05 05:33:15;;;;;;;11.00;5.85;;;;;;;;;;6231450;22;20210;-91
2021/05/05 05:36:20;;;;;;;11.35;5.80;;;;;;;;;;6232661;23;20266;-93
2021/05/05 05:39:26;;;;;;;10.20;6.13;;;;;;;;;;6231138;23;20151;-91
2021/05/05 05:42:31;;;;;;;10.75;6.05;;;;;;;;;;6232234;23;20175;-91
2021/05/05 05:45:37;;;;;;;10.82;5.95;;;;;;;;;;6228756;22;20164;-93
2021/05/05 05:48:41;;;;;;;9.05;5.70;;;;;;;;;;6227625;23;20176;-92
2021/05/05 05:51:46;;;;;;;9.15;5.38;;;;;;;;;;6229464;22;20189;-92
2021/05/05 05:54:51;;;;;;;8.50;5.78;;;;;;;;;;6227440;22;20218;-91
2021/05/05 05:57:57;;;;;;;9.45;6.15;;;;;;;;;;6229769;23;20163;-92
2021/05/05 06:01:03;;;;;;;10.50;5.55;;;;;;;;;;6226169;23;20267;-90
2021/05/05 06:04:09;;;;;;;7.05;3.63;;;;;;;;;;6228801;23;20292;-91
2021/05/05 06:07:13;;;;;;;2.85;1.88;;;;;;;;;;6227324;22;20171;-91
2021/05/05 06:10:19;;;;;;;6.20;2.05;;;;;;;;;;6228792;22;20166;-92
2021/05/05 06:13:24;;;;;;;2.60;1.50;;;;;;;;;;6232665;23;20179;-92
2021/05/05 06:16:30;;;;;;;3.33;1.53;;;;;;;;;;6233653;22;20179;-90
2021/05/05 06:19:35;;;;;;;3.20;1.23;;;;;;;;;;6238932;22;20498;-94
2021/05/05 06:22:40;;;;;;;4.37;1.03;;;;;;;;;;6236705;22;20196;-90
2021/05/05 06:25:45;;;;;;;3.60;0.83;;;;;;;;;;6231383;23;20155;-90
2021/05/05 06:29:06;;;;;;;4.50;1.00;;;;;;;;;;6233370;23;20187;-90
2021/05/05 06:32:11;;;;;;;0.90;0.70;;;;;;;;;;6230519;23;20222;-91
2021/05/05 11:43:20;;;;;;;4.53;1.70;;;;;;;;;;6217614;22;20219;-91
2021/05/05 11:46:26;;;;;;;2.47;1.30;;;;;;;;;;6246420;23;20227;-91
2021/05/05 11:49:31;;;;;;;3.30;1.43;;;;;;;;;;6244919;23;20174;-89
2021/05/05 11:52:37;;;;;;;9.23;3.60;;;;;;;;;;6241089;23;20174;-91
2021/05/05 11:55:42;;;;;;;6.10;1.43;;;;;;;;;;6241382;23;20254;-89
2021/05/05 11:59:01;;;;;;;2.30;1.30;;;;;;;;;;6245536;23;20548;-91
2021/05/05 12:02:06;;;;;;;3.40;1.30;;;;;;;;;;6243291;23;20269;-92
2021/05/05 12:05:11;;;;;;;2.47;1.40;;;;;;;;;;6244904;23;20190;-90
2021/05/05 12:08:18;;;;;;;5.00;1.70;;;;;;;;;;6244991;23;20174;-91
2021/05/05 12:11:23;;;;;;;5.53;1.33;;;;;;;;;;6245949;22;20201;-89
2021/05/05 12:14:32;;;;;;;3.13;1.60;;;;;;;;;;6246213;23;20236;-89
2021/05/05 12:17:52;;;;;;;7.10;1.53;;;;;;;;;;6245319;23;20166;-90
2021/05/05 12:21:05;;;;;;;4.20;2.07;;;;;;;;;;6245126;23;20170;-91
2021/05/05 12:24:10;;;;;;;3.27;1.30;;;;;;;;;;6244861;23;20190;-91
2021/05/05 12:27:15;;;;;;;2.33;1.40;;;;;;;;;;6245831;23;20222;-89
2021/05/05 12:30:25;;;;;;;3.77;1.50;;;;;;;;;;6244347;23;20483;-88
2021/05/05 12:33:36;;;;;;;4.30;1.80;;;;;;;;;;6247603;23;20206;-89
2021/05/05 12:36:42;;;;;;;3.70;1.73;;;;;;;;;;6247914;23;20170;-90
2021/05/05 12:39:48;;;;;;;5.87;1.53;;;;;;;;;;6245920;22;20170;-89
2021/05/05 12:42:55;;;;;;;5.03;1.77;;;;;;;;;;6246045;23;20174;-88
2021/05/05 12:46:02;;;;;;;3.83;1.80;;;;;;;;;;6246224;23;20656;-91
2021/05/05 12:49:16;;;;;;;4.80;1.63;;;;;;;;;;6244784;23;20212;-90
2021/05/05 12:52:25;;;;;;;4.57;1.80;;;;;;;;;;6245992;23;20159;-92
2021/05/05 12:55:32;;;;;;;2.97;1.60;;;;;;;;;;6245650;23;20214;-90
2021/05/05 13:03:07;;;;;;;5.63;1.50;;;;;;;;;;6264725;23;20151;-90
2021/05/05 13:06:14;;;;;;;4.80;1.73;;;;;;;;;;6244865;23;20178;-90
2021/05/05 13:09:21;;;;;;;3.33;1.20;;;;;;;;;;6244489;23;20177;-90
2021/05/05 13:12:35;;;;;;;10.27;1.70;;;;;;;;;;6247764;22;20171;-91
2021/05/05 13:15:44;;;;;;;9.50;1.53;;;;;;;;;;6250151;23;20174;-90
2021/05/05 13:19:11;;;;;;;15.00;3.83;;;;;;;;;;6247260;23;20158;-90
2021/05/05 13:26:32;;;;;;;5.22;1.92;;;;;;;;;;6247432;23;20155;-90
2021/05/05 13:29:49;;;;;;;4.65;1.10;;;;;;;;;;6246553;23;20251;-89
2021/05/05 13:32:56;;;;;;;6.10;1.63;;;;;;;;;;6245398;23;20189;-90
2021/05/05 13:36:05;;;;;;;15.43;5.30;;;;;;;;;;6242196;23;20503;-88
2021/05/05 13:39:13;;;;;;;6.28;2.08;;;;;;;;;;6209327;23;20171;-89
2021/05/05 13:42:19;;;;;;;2.92;1.20;;;;;;;;;;6211024;23;20194;-89
2021/05/05 13:45:24;;;;;;;6.75;1.40;;;;;;;;;;6197790;23;20199;-88
2021/05/05 13:48:41;;;;;;;3.15;1.30;;;;;;;;;;6180479;23;20167;-91
2021/05/05 13:51:47;;;;;;;3.22;1.45;;;;;;;;;;6180794;23;20167;-89
2021/05/05 13:54:52;;;;;;;4.13;1.48;;;;;;;;;;6179963;23;20271;-89
2021/05/05 13:57:56;;;;;;;2.35;1.20;;;;;;;;;;6199425;23;20220;-88
2021/05/05 14:01:01;;;;;;;2.92;1.33;;;;;;;;;;6180281;23;20180;-89
2021/05/05 14:04:06;;;;;;;5.72;1.45;;;;;;;;;;6178824;23;20241;-89
2021/05/05 14:07:13;;;;;;;2.78;1.10;;;;;;;;;;6179517;23;20167;-88
2021/05/05 14:10:17;;;;;;;8.77;1.40;;;;;;;;;;6179759;23;20180;-89
2021/05/05 14:13:22;;;;;;;4.53;1.40;;;;;;;;;;6178239;23;20273;-88
2021/05/05 14:16:27;;;;;;;4.68;1.10;;;;;;;;;;6178875;23;20168;-88
2021/05/05 14:19:31;;;;;;;4.43;1.33;;;;;;;;;;6179316;23;20180;-89
2021/05/05 14:22:37;;;;;;;3.72;1.65;;;;;;;;;;6177691;23;20188;-89
2021/05/05 14:25:41;;;;;;;4.93;1.50;;;;;;;;;;6179159;23;20152;-90
2021/05/05 14:28:46;;;;;;;7.03;1.50;;;;;;;;;;6179925;23;20227;-89
2021/05/05 14:31:52;;;;;;;6.18;1.30;;;;;;;;;;6183388;23;20183;-90
2021/05/05 14:34:56;;;;;;;4.07;1.52;;;;;;;;;;6181998;23;20511;-87
2021/05/05 14:38:06;;;;;;;3.90;1.20;;;;;;;;;;6181597;23;20298;-89
2021/05/05 14:41:14;;;;;;;9.82;1.30;;;;;;;;;;6184050;23;20167;-89
2021/05/05 14:44:21;;;;;;;5.45;1.70;;;;;;;;;;6205361;23;20211;-90
2021/05/05 14:50:51;;;;;;;8.02;1.60;;;;;;;;;;6210930;23;20220;-89
2021/05/05 14:53:56;;;;;;;5.70;1.77;;;;;;;;;;6230207;23;20237;-88
2021/05/05 14:57:01;;;;;;;8.27;1.83;;;;;;;;;;6210097;23;20171;-88
2021/05/05 15:00:10;;;;;;;8.70;1.70;;;;;;;;;;6230615;23;20171;-89
2021/05/05 15:03:15;;;;;;;4.45;1.90;;;;;;;;;;6227322;23;20175;-88
2021/05/05 15:06:25;;;;;;;6.15;1.85;;;;;;;;;;6228002;23;20187;-88
2021/05/05 15:09:50;;;;;;;4.97;1.95;;;;;;;;;;6210926;23;20171;-90
2021/05/05 15:12:57;;;;;;;7.10;2.00;;;;;;;;;;6210901;23;20195;-88
2021/05/05 15:16:54;;;;;;;6.25;1.63;;;;;;;;;;6230208;23;20514;-89
2021/05/05 15:30:02;;;;;;;4.15;1.45;;;;;;;;;;6207872;23;20171;-89
2021/05/05 15:36:31;;;;;;;6.97;1.80;;;;;;;;;;6207971;23;20168;-89
2021/05/05 15:39:38;;;;;;;7.70;1.25;;;;;;;;;;6225619;23;20543;-88
2021/05/05 15:42:43;;;;;;;4.22;1.00;;;;;;;;;;6226516;23;20194;-87
2021/05/05 15:45:53;;;;;;;1.73;1.13;;;;;;;;;;6225701;23;20178;-87
2021/05/05 15:48:57;;;;;;;5.05;1.27;;;;;;;;;;6227070;23;20194;-87
2021/05/05 15:52:02;;;;;;;6.17;0.90;;;;;;;;;;6208253;23;20167;-88
2021/05/05 15:55:08;;;;;;;5.03;1.10;;;;;;;;;;6225950;23;20266;-90
2021/05/05 15:58:17;;;;;;;8.65;1.77;;;;;;;;;;6208474;23;20175;-88
2021/05/05 16:01:29;;;;;;;5.05;1.20;;;;;;;;;;6226808;23;20175;-90
2021/05/05 16:04:59;;;;;;;2.25;0.82;;;;;;;;;;6227638;23;20633;-89
2021/05/05 16:15:09;;;;;;;3.33;1.75;;;;;;;;;;6210205;23;20233;-89
2021/05/05 16:18:16;;;;;;;4.35;1.20;;;;;;;;;;6208997;23;20194;-87
2021/05/05 16:21:35;;;;;;;6.18;1.13;;;;;;;;;;6206385;23;20174;-88
2021/05/05 16:25:06;;;;;;;3.97;1.23;;;;;;;;;;6206124;23;20168;-90
2021/05/05 16:28:34;;;;;;;3.92;1.08;;;;;;;;;;6205451;23;20199;-89
2021/05/05 16:48:59;;;;;;;3.45;0.90;;;;;;;;;;6178455;23;20180;-88
2021/05/05 16:52:22;;;;;;;2.83;0.85;;;;;;;;;;6194940;23;20215;-88
2021/05/05 16:55:33;;;;;;;1.52;0.80;;;;;;;;;;6195424;23;20199;-89
2021/05/05 16:58:55;;;;;;;3.53;0.80;;;;;;;;;;6178854;23;20176;-88
2021/05/05 17:05:51;;;;;;;4.68;1.00;;;;;;;;;;6177865;23;20164;-89
2021/05/05 17:09:05;;;;;;;1.92;0.90;;;;;;;;;;6180366;23;20171;-89
2021/05/05 17:12:11;;;;;;;3.27;0.70;;;;;;;;;;6179944;23;20241;-89
2021/05/05 17:15:17;;;;;;;3.07;1.00;;;;;;;;;;6195319;23;20250;-90
2021/05/05 17:18:28;;;;;;;2.60;0.90;;;;;;;;;;6182192;23;20187;-90
2021/05/05 17:21:36;;;;;;;2.50;0.70;;;;;;;;;;6197785;23;20491;-89
2021/05/05 17:24:51;;;;;;;1.73;0.83;;;;;;;;;;6177465;23;20171;-89
2021/05/05 17:28:00;;;;;;;2.83;0.73;;;;;;;;;;6177763;23;20199;-90
2021/05/05 20:20:38;;;;;;;6.60;1.97;;;;;;;;;;6230204;23;20195;-91
2021/05/05 21:11:37;;;;;;;3.47;1.40;;;;;;;;;;6189522;23;20187;-90
2021/05/05 22:57:17;;;;;;;4.90;2.33;;;;;;;;;;6226538;23;20195;-91
2021/05/05 23:14:18;;;;;;;2.80;1.53;;;;;;;;;;6227932;23;20295;-89
2021/05/05 23:28:18;;;;;;;3.87;1.60;;;;;;;;;;5058483;28;20201;-90
2021/05/05 23:31:39;;;;;;;3.93;1.47;;;;;;;;;;5087188;28;20213;-88
2021/05/05 23:35:03;;;;;;;2.57;1.40;;;;;;;;;;5077789;28;20241;-89
